createdAt,value
2022-08-22T00:00:13.347Z,7.90
2022-08-22T00:02:56.170Z,6.45
2022-08-22T00:03:01.582Z,4.80
2022-08-22T00:03:01.815Z,5.90
2022-08-22T00:03:02.938Z,9.02
2022-08-22T00:03:11.355Z,6.88
2022-08-22T00:03:16.196Z,7.60
2022-08-22T00:05:39.344Z,7.13
2022-08-22T00:08:10.064Z,11.52
2022-08-22T00:10:49.062Z,6.78
2022-08-22T00:13:19.641Z,4.57
2022-08-22T00:15:51.429Z,5.50
2022-08-22T00:18:22.348Z,8.95
2022-08-22T00:21:01.989Z,4.18
2022-08-22T00:23:33.339Z,10.52
2022-08-22T00:26:03.451Z,5.32
2022-08-22T00:28:33.516Z,8.13
2022-08-22T00:31:04.000Z,6.25
2022-08-22T00:33:36.240Z,6.55
2022-08-22T00:36:09.194Z,5.63
2022-08-22T00:38:39.899Z,5.85
2022-08-22T00:41:11.066Z,6.25
2022-08-22T00:44:00.144Z,8.25
2022-08-22T00:46:35.065Z,5.82
2022-08-22T00:49:09.795Z,7.95
2022-08-22T00:54:40.492Z,6.25
2022-08-22T00:57:18.780Z,9.05
2022-08-22T00:59:53.730Z,9.13
2022-08-22T01:02:31.772Z,10.40
2022-08-22T01:05:18.166Z,6.72
2022-08-22T01:07:53.056Z,10.80
2022-08-22T01:10:30.153Z,5.55
2022-08-22T01:13:07.601Z,6.85
2022-08-22T01:15:37.726Z,6.05
2022-08-22T01:18:18.744Z,6.75
2022-08-22T01:21:13.801Z,6.25
2022-08-22T01:23:56.572Z,6.82
2022-08-22T01:26:44.774Z,7.13
2022-08-22T01:29:36.980Z,6.82
2022-08-22T01:32:27.881Z,8.30
2022-08-22T01:35:01.749Z,5.63
2022-08-22T01:37:43.723Z,7.95
2022-08-22T01:40:27.274Z,7.22
2022-08-22T01:43:04.438Z,5.80
2022-08-22T01:45:40.049Z,5.05
2022-08-22T01:48:10.472Z,7.10
2022-08-22T01:50:43.078Z,7.75
2022-08-22T01:53:16.168Z,5.90
2022-08-22T01:55:52.372Z,6.57
2022-08-22T01:58:22.942Z,7.15
2022-08-22T02:00:56.442Z,5.38
2022-08-22T02:03:26.720Z,6.15
2022-08-22T02:06:00.264Z,8.32
2022-08-22T02:08:33.297Z,5.65
2022-08-22T02:11:04.882Z,6.57
2022-08-22T02:13:44.002Z,6.18
2022-08-22T02:16:14.761Z,5.43
2022-08-22T02:18:47.887Z,6.85
2022-08-22T02:21:20.308Z,4.20
2022-08-22T02:23:52.351Z,5.70
2022-08-22T02:26:26.997Z,6.40
2022-08-22T02:28:58.684Z,7.28
2022-08-22T02:31:38.286Z,7.60
2022-08-22T02:34:18.924Z,8.48
2022-08-22T02:36:50.924Z,7.97
2022-08-22T02:39:23.160Z,5.53
2022-08-22T02:41:55.483Z,5.78
2022-08-22T02:44:28.572Z,6.95
2022-08-22T02:47:02.676Z,7.70
2022-08-22T02:49:35.201Z,6.03
2022-08-22T02:52:15.398Z,5.50
2022-08-22T02:54:44.945Z,7.68
2022-08-22T02:57:16.639Z,5.18
2022-08-22T03:00:04.705Z,4.53
2022-08-22T03:02:36.688Z,9.80
2022-08-22T03:05:17.590Z,6.30
2022-08-22T03:07:50.080Z,4.45
2022-08-22T03:10:21.577Z,6.53
2022-08-22T03:12:57.526Z,7.67
2022-08-22T03:15:29.171Z,7.20
2022-08-22T03:18:00.934Z,8.27
2022-08-22T03:20:45.584Z,8.27
2022-08-22T03:23:19.406Z,7.87
2022-08-22T03:25:50.449Z,8.03
2022-08-22T03:28:21.952Z,6.43
2022-08-22T03:30:58.457Z,7.10
2022-08-22T03:33:27.402Z,8.77
2022-08-22T03:36:04.749Z,6.50
2022-08-22T03:38:44.565Z,6.00
2022-08-22T03:41:24.345Z,9.07
2022-08-22T03:44:11.896Z,6.97
2022-08-22T03:46:54.610Z,7.37
2022-08-22T03:49:37.700Z,9.93
2022-08-22T03:52:20.340Z,6.90
2022-08-22T03:55:06.785Z,9.13
2022-08-22T03:57:46.966Z,9.30
2022-08-22T04:00:30.229Z,8.97
2022-08-22T04:03:14.237Z,10.80
2022-08-22T04:06:00.431Z,7.40
2022-08-22T04:08:58.923Z,8.03
2022-08-22T04:11:41.287Z,7.80
2022-08-22T04:14:19.550Z,9.43
2022-08-22T04:17:08.744Z,8.07
2022-08-22T04:19:51.135Z,7.37
2022-08-22T04:22:27.395Z,7.73
2022-08-22T04:24:59.617Z,7.90
2022-08-22T04:27:31.820Z,8.77
2022-08-22T04:30:02.634Z,8.50
2022-08-22T04:32:36.576Z,8.30
2022-08-22T04:35:08.593Z,5.97
2022-08-22T04:37:41.113Z,9.10
2022-08-22T04:40:13.736Z,6.77
2022-08-22T04:42:47.086Z,7.50
2022-08-22T04:45:18.562Z,8.03
2022-08-22T04:47:54.065Z,7.03
2022-08-22T04:50:25.763Z,6.03
2022-08-22T04:52:59.606Z,7.27
2022-08-22T04:55:33.660Z,9.00
2022-08-22T04:58:10.746Z,10.30
2022-08-22T05:00:44.552Z,8.03
2022-08-22T05:03:14.839Z,8.53
2022-08-22T05:05:44.624Z,11.93
2022-08-22T05:08:14.278Z,10.20
2022-08-22T05:10:44.170Z,9.83
2022-08-22T05:13:20.335Z,8.97
2022-08-22T05:15:50.241Z,7.20
2022-08-22T05:18:20.777Z,7.33
2022-08-22T05:20:51.430Z,6.72
2022-08-22T05:23:20.472Z,10.55
2022-08-22T05:25:50.786Z,10.00
2022-08-22T05:28:26.058Z,11.90
2022-08-22T05:30:55.485Z,7.30
2022-08-22T05:33:26.386Z,10.45
2022-08-22T05:35:58.101Z,7.20
2022-08-22T05:38:29.705Z,7.60
2022-08-22T05:41:01.638Z,8.38
2022-08-22T05:43:31.382Z,8.52
2022-08-22T05:46:00.515Z,9.15
2022-08-22T05:48:34.406Z,10.70
2022-08-22T05:51:07.942Z,8.85
2022-08-22T05:53:39.347Z,9.10
2022-08-22T05:56:10.918Z,9.15
2022-08-22T05:58:49.654Z,9.45
2022-08-22T06:01:22.875Z,12.05
2022-08-22T06:03:57.213Z,9.48
2022-08-22T06:06:26.762Z,8.20
2022-08-22T06:08:58.473Z,9.75
2022-08-22T06:11:33.844Z,11.02
2022-08-22T06:14:09.620Z,8.27
2022-08-22T06:16:48.777Z,8.52
2022-08-22T06:19:19.426Z,9.18
2022-08-22T06:21:49.477Z,6.93
2022-08-22T06:24:21.216Z,8.18
2022-08-22T06:26:51.742Z,10.02
2022-08-22T06:29:24.230Z,12.27
2022-08-22T06:31:52.540Z,21.45
2022-08-22T06:34:25.138Z,8.63
2022-08-22T06:36:56.115Z,8.60
2022-08-22T06:39:26.110Z,9.48
2022-08-22T06:41:57.076Z,7.68
2022-08-22T06:44:29.096Z,6.47
2022-08-22T06:46:59.636Z,9.35
2022-08-22T06:49:29.398Z,10.20
2022-08-22T06:52:01.726Z,8.93
2022-08-22T06:54:34.409Z,8.50
2022-08-22T06:57:04.736Z,8.73
2022-08-22T06:59:36.831Z,5.78
2022-08-22T07:02:08.045Z,6.53
2022-08-22T07:04:36.393Z,9.45
2022-08-22T07:07:04.703Z,15.98
2022-08-22T07:09:35.788Z,8.10
2022-08-22T07:12:06.358Z,6.05
2022-08-22T07:14:43.591Z,10.40
2022-08-22T07:17:17.927Z,9.05
2022-08-22T07:19:48.488Z,11.10
2022-08-22T07:22:18.199Z,8.82
2022-08-22T07:24:48.865Z,9.90
2022-08-22T07:27:22.641Z,9.40
2022-08-22T07:29:57.909Z,9.38
2022-08-22T07:32:30.286Z,10.07
2022-08-22T07:35:06.177Z,8.05
2022-08-22T07:37:42.503Z,9.00
2022-08-22T07:40:15.936Z,7.13
2022-08-22T07:42:47.653Z,6.03
2022-08-22T07:45:20.760Z,6.03
2022-08-22T07:47:59.444Z,7.18
2022-08-22T07:50:31.361Z,9.23
2022-08-22T07:53:04.855Z,9.27
2022-08-22T07:55:33.653Z,9.50
2022-08-22T07:58:13.481Z,7.45
2022-08-22T08:00:46.845Z,6.13
2022-08-22T08:03:15.413Z,10.00
2022-08-22T08:05:45.810Z,10.90
2022-08-22T08:08:19.170Z,9.07
2022-08-22T08:10:50.717Z,10.40
2022-08-22T08:13:22.553Z,6.78
2022-08-22T08:15:52.617Z,9.35
2022-08-22T08:18:23.458Z,7.80
2022-08-22T08:20:53.714Z,8.02
2022-08-22T08:23:23.681Z,7.70
2022-08-22T08:25:57.580Z,10.60
2022-08-22T08:28:34.195Z,6.38
2022-08-22T08:31:08.577Z,6.43
2022-08-22T08:33:38.988Z,9.00
2022-08-22T08:36:09.984Z,7.38
2022-08-22T08:38:42.114Z,8.65
2022-08-22T08:41:23.100Z,6.82
2022-08-22T08:43:57.041Z,9.82
2022-08-22T08:46:50.232Z,7.15
2022-08-22T08:49:40.176Z,7.43
2022-08-22T08:52:28.814Z,6.65
2022-08-22T08:55:19.951Z,9.35
2022-08-22T08:57:59.529Z,5.63
2022-08-22T09:00:48.942Z,10.40
2022-08-22T09:03:30.807Z,6.32
2022-08-22T09:06:07.702Z,9.38
2022-08-22T09:08:42.203Z,6.75
2022-08-22T09:11:32.259Z,9.68
2022-08-22T09:14:08.429Z,6.70
2022-08-22T09:16:58.058Z,9.73
2022-08-22T09:19:44.090Z,7.45
2022-08-22T09:22:33.435Z,10.40
2022-08-22T09:25:23.596Z,7.32
2022-08-22T09:27:57.784Z,10.00
2022-08-22T09:30:29.828Z,6.32
2022-08-22T09:33:00.829Z,4.93
2022-08-22T09:35:34.298Z,8.82
2022-08-22T09:38:22.098Z,5.25
2022-08-22T09:40:53.624Z,7.22
2022-08-22T09:43:25.654Z,8.80
2022-08-22T09:46:02.133Z,6.75
2022-08-22T09:48:44.460Z,6.15
2022-08-22T09:51:32.317Z,5.55
2022-08-22T09:54:22.862Z,6.72
2022-08-22T09:57:08.499Z,6.97
2022-08-22T09:59:47.793Z,9.23
2022-08-22T10:02:21.421Z,8.93
2022-08-22T10:04:56.967Z,8.10
2022-08-22T10:07:35.643Z,6.65
2022-08-22T10:10:11.675Z,6.47
2022-08-22T10:12:50.262Z,6.43
2022-08-22T10:15:20.778Z,5.18
2022-08-22T10:17:56.638Z,6.50
2022-08-22T10:20:27.857Z,9.40
2022-08-22T10:23:00.925Z,7.30
2022-08-22T10:25:41.798Z,8.68
2022-08-22T10:28:16.756Z,5.88
2022-08-22T10:30:50.680Z,7.07
2022-08-22T10:33:25.146Z,5.47
2022-08-22T10:36:05.085Z,7.65
2022-08-22T10:38:46.149Z,9.60
2022-08-22T10:41:19.459Z,7.15
2022-08-22T10:44:00.747Z,5.47
2022-08-22T10:46:33.320Z,6.10
2022-08-22T10:49:05.929Z,5.93
2022-08-22T10:51:41.358Z,5.78
2022-08-22T10:54:28.162Z,7.45
2022-08-22T10:57:00.277Z,9.48
2022-08-22T10:59:35.194Z,5.57
2022-08-22T11:02:12.474Z,4.88
2022-08-22T11:04:49.990Z,5.78
2022-08-22T11:07:44.588Z,5.97
2022-08-22T11:10:23.089Z,6.72
2022-08-22T11:13:00.533Z,5.15
2022-08-22T11:15:54.797Z,7.07
2022-08-22T11:18:27.512Z,5.20
2022-08-22T11:21:01.639Z,4.60
2022-08-22T11:23:57.038Z,5.10
2022-08-22T11:26:46.663Z,4.55
2022-08-22T11:29:26.396Z,4.55
2022-08-22T11:32:06.232Z,6.93
2022-08-22T11:34:46.318Z,6.75
2022-08-22T11:37:42.281Z,5.63
2022-08-22T11:40:18.305Z,11.48
2022-08-22T11:42:49.108Z,5.93
2022-08-22T11:45:21.566Z,3.15
2022-08-22T11:47:55.402Z,5.00
2022-08-22T11:50:29.545Z,5.45
2022-08-22T11:53:09.861Z,3.55
2022-08-22T11:55:40.230Z,6.40
2022-08-22T11:58:16.629Z,3.92
2022-08-22T12:00:51.157Z,5.43
2022-08-22T12:03:39.466Z,3.55
2022-08-22T12:06:11.442Z,7.13
2022-08-22T12:08:59.557Z,8.50
2022-08-22T12:11:31.593Z,4.13
2022-08-22T12:14:05.990Z,2.88
2022-08-22T12:16:39.336Z,5.80
2022-08-22T12:19:14.901Z,3.42
2022-08-22T12:22:01.851Z,4.88
2022-08-22T12:24:36.146Z,2.83
2022-08-22T12:27:29.047Z,2.83
2022-08-22T12:30:04.664Z,4.47
2022-08-22T12:33:09.735Z,5.22
2022-08-22T12:36:02.217Z,3.92
2022-08-22T12:38:41.705Z,4.00
2022-08-22T12:41:36.781Z,2.67
2022-08-22T12:44:18.379Z,4.43
2022-08-22T12:46:52.769Z,6.97
2022-08-22T12:49:41.640Z,4.78
2022-08-22T12:52:19.921Z,3.03
2022-08-22T12:54:58.871Z,4.30
2022-08-22T12:57:36.716Z,4.05
2022-08-22T13:00:11.706Z,3.08
2022-08-22T13:02:41.659Z,2.25
2022-08-22T13:05:13.695Z,3.97
2022-08-22T13:07:52.750Z,5.88
2022-08-22T13:10:34.335Z,3.25
2022-08-22T13:13:12.621Z,5.50
2022-08-22T13:15:44.061Z,4.35
2022-08-22T13:18:30.518Z,3.90
2022-08-22T13:21:02.786Z,5.40
2022-08-22T13:23:34.363Z,6.10
2022-08-22T13:26:11.173Z,2.65
2022-08-22T13:28:45.305Z,3.08
2022-08-22T13:31:21.879Z,3.33
2022-08-22T13:33:50.368Z,2.30
2022-08-22T13:36:20.470Z,4.97
2022-08-22T13:38:50.959Z,6.57
2022-08-22T13:41:22.862Z,3.28
2022-08-22T13:44:12.795Z,3.92
2022-08-22T13:47:10.786Z,5.75
2022-08-22T13:49:34.434Z,3.72
2022-08-22T13:52:28.740Z,4.10
2022-08-22T13:54:58.719Z,3.97
2022-08-22T13:57:29.625Z,3.10
2022-08-22T14:00:06.741Z,4.50
2022-08-22T14:02:43.206Z,4.43
2022-08-22T14:05:14.956Z,4.43
2022-08-22T14:07:48.793Z,4.72
2022-08-22T14:10:23.641Z,2.20
2022-08-22T14:13:08.299Z,4.35
2022-08-22T14:15:44.811Z,2.40
2022-08-22T14:18:15.821Z,4.45
2022-08-22T14:20:47.741Z,3.92
2022-08-22T14:23:19.541Z,4.07
2022-08-22T14:25:52.748Z,9.50
2022-08-22T14:28:27.374Z,4.45
2022-08-22T14:31:01.212Z,6.13
2022-08-22T14:33:35.120Z,4.13
2022-08-22T14:36:06.184Z,3.70
2022-08-22T14:38:39.350Z,2.35
2022-08-22T14:41:23.472Z,2.42
2022-08-22T14:43:53.336Z,3.75
2022-08-22T14:46:26.726Z,5.57
2022-08-22T14:49:16.177Z,4.35
2022-08-22T14:51:50.743Z,5.90
2022-08-22T14:54:21.984Z,3.63
2022-08-22T14:56:51.282Z,2.00
2022-08-22T14:59:32.916Z,2.78
2022-08-22T15:02:04.538Z,3.70
2022-08-22T15:04:36.298Z,5.60
2022-08-22T15:07:04.853Z,4.03
2022-08-22T15:09:34.409Z,4.38
2022-08-22T15:12:04.001Z,4.40
2022-08-22T15:14:52.241Z,5.43
2022-08-22T15:17:35.173Z,6.85
2022-08-22T15:20:11.806Z,3.38
2022-08-22T15:22:41.480Z,5.20
2022-08-22T15:25:16.114Z,3.83
2022-08-22T15:27:47.300Z,5.63
2022-08-22T15:30:20.867Z,6.38
2022-08-22T15:32:50.999Z,6.10
2022-08-22T15:35:29.906Z,5.93
2022-08-22T15:38:00.428Z,4.53
2022-08-22T15:40:40.599Z,4.32
2022-08-22T15:43:17.547Z,3.72
2022-08-22T15:45:48.913Z,3.58
2022-08-22T15:48:28.568Z,3.90
2022-08-22T15:50:58.493Z,4.45
2022-08-22T15:53:28.520Z,3.83
2022-08-22T15:56:28.882Z,6.20
2022-08-22T15:59:15.901Z,3.53
2022-08-22T16:01:51.290Z,3.97
2022-08-22T16:04:32.913Z,4.38
2022-08-22T16:07:02.099Z,5.03
2022-08-22T16:09:36.769Z,5.78
2022-08-22T16:12:07.501Z,4.00
2022-08-22T16:14:49.627Z,3.25
2022-08-22T16:17:36.391Z,3.30
2022-08-22T16:20:22.540Z,4.20
2022-08-22T16:23:10.697Z,2.78
2022-08-22T16:26:09.138Z,3.50
2022-08-22T16:28:57.726Z,3.03
2022-08-22T16:31:29.463Z,7.57
2022-08-22T16:33:58.903Z,3.85
2022-08-22T16:36:44.704Z,3.72
2022-08-22T16:39:33.086Z,3.88
2022-08-22T16:42:16.242Z,3.45
2022-08-22T16:44:45.876Z,5.45
2022-08-22T16:47:16.319Z,4.65
2022-08-22T16:50:05.978Z,4.25
2022-08-22T16:52:40.967Z,2.67
2022-08-22T16:55:30.631Z,3.67
2022-08-22T16:58:07.164Z,4.05
2022-08-22T17:00:42.531Z,4.28
2022-08-22T17:03:18.073Z,4.30
2022-08-22T17:05:53.139Z,2.90
2022-08-22T17:08:26.490Z,3.47
2022-08-22T17:11:01.272Z,4.85
2022-08-22T17:13:43.031Z,4.40
2022-08-22T17:16:16.837Z,4.95
2022-08-22T17:18:49.108Z,3.00
2022-08-22T17:21:25.426Z,3.35
2022-08-22T17:23:58.502Z,4.72
2022-08-22T17:26:33.931Z,3.50
2022-08-22T17:29:06.537Z,2.90
2022-08-22T17:31:37.890Z,4.65
2022-08-22T17:34:17.715Z,4.07
2022-08-22T17:36:54.112Z,3.53
2022-08-22T17:39:32.547Z,4.65
2022-08-22T17:42:19.076Z,2.67
2022-08-22T17:44:54.681Z,5.75
2022-08-22T17:47:24.714Z,4.82
2022-08-22T17:49:56.105Z,4.25
2022-08-22T17:52:26.759Z,5.25
2022-08-22T17:54:58.518Z,6.97
2022-08-22T17:57:30.167Z,3.58
2022-08-22T18:00:02.021Z,3.90
2022-08-22T18:02:33.722Z,4.40
2022-08-22T18:05:04.713Z,4.75
2022-08-22T18:07:39.976Z,6.88
2022-08-22T18:10:14.384Z,5.47
2022-08-22T18:12:48.050Z,4.13
2022-08-22T18:15:23.353Z,3.40
2022-08-22T18:17:55.903Z,3.47
2022-08-22T18:20:27.421Z,4.40
2022-08-22T18:22:57.164Z,4.85
2022-08-22T18:25:31.930Z,4.13
2022-08-22T18:28:04.377Z,6.60
2022-08-22T18:30:36.691Z,5.97
2022-08-22T18:33:09.130Z,3.95
2022-08-22T18:35:43.220Z,5.07
2022-08-22T18:38:19.604Z,3.13
2022-08-22T18:40:50.480Z,3.60
2022-08-22T18:43:24.018Z,6.25
2022-08-22T18:46:00.157Z,5.20
2022-08-22T18:48:34.216Z,3.80
2022-08-22T18:51:19.325Z,5.32
2022-08-22T18:53:50.744Z,6.22
2022-08-22T18:56:36.673Z,5.15
2022-08-22T18:59:10.977Z,5.53
2022-08-22T19:01:47.707Z,4.82
2022-08-22T19:04:34.008Z,6.10
2022-08-22T19:07:16.992Z,5.68
2022-08-22T19:09:51.010Z,6.65
2022-08-22T19:12:24.979Z,3.80
2022-08-22T19:15:02.369Z,4.03
2022-08-22T19:17:40.849Z,8.55
2022-08-22T19:20:27.906Z,6.78
2022-08-22T19:23:16.275Z,6.88
2022-08-22T19:26:14.120Z,5.88
2022-08-22T19:28:43.713Z,3.75
2022-08-22T19:31:23.438Z,6.75
2022-08-22T19:34:11.771Z,8.43
2022-08-22T19:36:40.143Z,6.50
2022-08-22T19:39:09.423Z,4.70
2022-08-22T19:41:42.696Z,5.88
2022-08-22T19:44:13.568Z,5.72
2022-08-22T19:46:43.141Z,4.72
2022-08-22T19:49:29.187Z,5.32
2022-08-22T19:52:11.896Z,6.95
2022-08-22T19:54:43.989Z,3.80
2022-08-22T19:57:17.604Z,6.93
2022-08-22T19:59:53.023Z,3.83
2022-08-22T20:02:31.860Z,5.43
2022-08-22T20:05:23.914Z,5.20
2022-08-22T20:08:00.037Z,3.65
2022-08-22T20:10:31.478Z,8.15
2022-08-22T20:13:05.524Z,6.00
2022-08-22T20:15:59.066Z,3.63
2022-08-22T20:18:48.650Z,3.90
2022-08-22T20:21:38.745Z,4.20
2022-08-22T20:24:10.896Z,2.72
2022-08-22T20:26:52.103Z,3.97
2022-08-22T20:29:30.265Z,3.97
2022-08-22T20:31:59.185Z,4.82
2022-08-22T20:34:29.081Z,6.10
2022-08-22T20:37:22.676Z,4.10
2022-08-22T20:39:58.804Z,4.57
2022-08-22T20:42:28.043Z,4.70
2022-08-22T20:44:57.320Z,4.68
2022-08-22T20:47:26.767Z,3.85
2022-08-22T20:50:10.260Z,3.53
2022-08-22T20:52:41.447Z,6.30
2022-08-22T20:55:19.449Z,6.38
2022-08-22T20:57:50.641Z,4.32
2022-08-22T21:00:20.199Z,4.32
2022-08-22T21:02:52.581Z,5.05
2022-08-22T21:05:22.444Z,5.72
2022-08-22T21:08:02.741Z,5.45
2022-08-22T21:10:47.994Z,5.95
2022-08-22T21:13:19.615Z,4.70
2022-08-22T21:15:49.215Z,5.82
2022-08-22T21:18:25.851Z,5.00
2022-08-22T21:20:54.142Z,4.57
2022-08-22T21:23:22.526Z,3.67
2022-08-22T21:25:55.011Z,6.28
2022-08-22T21:28:32.791Z,5.82
2022-08-22T21:31:02.379Z,4.18
2022-08-22T21:33:30.739Z,5.10
2022-08-22T21:36:00.590Z,5.97
2022-08-22T21:38:29.406Z,5.07
2022-08-22T21:41:05.280Z,4.13
2022-08-22T21:43:36.748Z,4.90
2022-08-22T21:46:05.343Z,6.03
2022-08-22T21:48:35.771Z,5.70
2022-08-22T21:51:18.909Z,4.70
2022-08-22T21:53:47.158Z,4.63
2022-08-22T21:56:30.737Z,5.32
2022-08-22T21:59:25.853Z,3.38
2022-08-22T22:02:36.387Z,4.60
2022-08-22T22:05:07.492Z,5.22
2022-08-22T22:07:37.367Z,3.35
2022-08-22T22:10:06.337Z,5.88
2022-08-22T22:12:36.168Z,5.25
2022-08-22T22:15:04.726Z,4.60
2022-08-22T22:17:34.207Z,4.60
2022-08-22T22:20:02.582Z,4.55
2022-08-22T22:22:30.835Z,3.38
2022-08-22T22:24:59.184Z,4.90
2022-08-22T22:27:28.222Z,6.18
2022-08-22T22:29:58.498Z,4.13
2022-08-22T22:32:26.745Z,3.33
2022-08-22T22:34:55.172Z,5.72
2022-08-22T22:37:23.474Z,3.00
2022-08-22T22:39:51.872Z,4.30
2022-08-22T22:42:34.273Z,5.22
2022-08-22T22:45:03.972Z,5.57
2022-08-22T22:47:33.812Z,5.20
2022-08-22T22:50:02.161Z,4.47
2022-08-22T22:52:30.413Z,3.75
2022-08-22T22:54:59.388Z,4.55
2022-08-22T22:57:27.761Z,7.40
2022-08-22T22:59:57.055Z,6.50
2022-08-22T23:02:26.839Z,3.97
2022-08-22T23:04:56.881Z,4.90
2022-08-22T23:07:25.662Z,3.92
2022-08-22T23:09:54.648Z,4.68
2022-08-22T23:12:25.299Z,4.30
2022-08-22T23:14:53.550Z,4.38
2022-08-22T23:17:21.831Z,3.83
2022-08-22T23:19:51.977Z,3.92
2022-08-22T23:22:20.637Z,3.20
2022-08-22T23:24:50.712Z,3.00
2022-08-22T23:27:19.025Z,4.70
2022-08-22T23:29:47.304Z,4.25
2022-08-22T23:32:15.674Z,3.97
2022-08-22T23:34:45.993Z,3.20
2022-08-22T23:37:17.078Z,6.13
2022-08-22T23:39:45.546Z,4.53
2022-08-22T23:42:14.302Z,3.92
2022-08-22T23:44:45.093Z,4.20
2022-08-22T23:47:14.012Z,5.07
2022-08-22T23:49:42.929Z,6.10
2022-08-22T23:52:11.879Z,4.95
2022-08-22T23:54:41.522Z,6.80
2022-08-22T23:57:11.859Z,5.43
2022-08-22T23:59:46.307Z,4.63
